sensor_id;sensor_type;location;lat;lon;timestamp;P1;durP1;ratioP1;P2;durP2;ratioP2
24745;SDS011;12845;52.042;6.838;2023-01-10T00:02:12;17.65;;;5.40;;
24745;SDS011;12845;52.042;6.838;2023-01-10T00:04:37;16.00;;;6.88;;
24745;SDS011;12845;52.042;6.838;2023-01-10T00:07:02;16.95;;;5.95;;
24745;SDS011;12845;52.042;6.838;2023-01-10T00:09:27;18.17;;;6.45;;
24745;SDS011;12845;52.042;6.838;2023-01-10T00:11:53;18.52;;;6.75;;
24745;SDS011;12845;52.042;6.838;2023-01-10T00:14:37;15.80;;;7.13;;
24745;SDS011;12845;52.042;6.838;2023-01-10T00:17:03;17.63;;;5.93;;
24745;SDS011;12845;52.042;6.838;2023-01-10T00:19:28;18.20;;;6.15;;
24745;SDS011;12845;52.042;6.838;2023-01-10T00:21:54;11.45;;;5.85;;
24745;SDS011;12845;52.042;6.838;2023-01-10T00:24:21;19.13;;;6.35;;
24745;SDS011;12845;52.042;6.838;2023-01-10T00:26:48;14.30;;;7.22;;
24745;SDS011;12845;52.042;6.838;2023-01-10T00:29:16;17.67;;;7.65;;
24745;SDS011;12845;52.042;6.838;2023-01-10T00:31:41;20.58;;;6.88;;
24745;SDS011;12845;52.042;6.838;2023-01-10T00:34:06;18.55;;;7.82;;
24745;SDS011;12845;52.042;6.838;2023-01-10T00:36:32;22.05;;;7.35;;
24745;SDS011;12845;52.042;6.838;2023-01-10T00:38:57;13.70;;;6.90;;
24745;SDS011;12845;52.042;6.838;2023-01-10T00:41:22;18.20;;;6.88;;
24745;SDS011;12845;52.042;6.838;2023-01-10T00:44:06;16.67;;;5.95;;
24745;SDS011;12845;52.042;6.838;2023-01-10T00:46:32;19.02;;;6.18;;
24745;SDS011;12845;52.042;6.838;2023-01-10T00:48:58;15.65;;;7.20;;
24745;SDS011;12845;52.042;6.838;2023-01-10T00:51:24;21.33;;;7.85;;
24745;SDS011;12845;52.042;6.838;2023-01-10T00:53:49;16.38;;;7.60;;
24745;SDS011;12845;52.042;6.838;2023-01-10T00:56:14;20.80;;;7.72;;
24745;SDS011;12845;52.042;6.838;2023-01-10T00:58:40;13.43;;;5.30;;
24745;SDS011;12845;52.042;6.838;2023-01-10T01:01:07;20.30;;;7.07;;
24745;SDS011;12845;52.042;6.838;2023-01-10T01:03:32;15.40;;;5.47;;
24745;SDS011;12845;52.042;6.838;2023-01-10T01:06:02;16.08;;;6.10;;
24745;SDS011;12845;52.042;6.838;2023-01-10T01:08:28;14.80;;;5.50;;
24745;SDS011;12845;52.042;6.838;2023-01-10T01:10:53;15.55;;;5.85;;
24745;SDS011;12845;52.042;6.838;2023-01-10T01:13:20;13.80;;;4.70;;
24745;SDS011;12845;52.042;6.838;2023-01-10T01:15:45;16.90;;;6.55;;
24745;SDS011;12845;52.042;6.838;2023-01-10T01:18:13;16.85;;;5.05;;
24745;SDS011;12845;52.042;6.838;2023-01-10T01:20:38;14.15;;;5.50;;
24745;SDS011;12845;52.042;6.838;2023-01-10T01:23:04;14.18;;;4.63;;
24745;SDS011;12845;52.042;6.838;2023-01-10T01:25:30;11.45;;;5.72;;
24745;SDS011;12845;52.042;6.838;2023-01-10T01:27:55;13.57;;;5.05;;
24745;SDS011;12845;52.042;6.838;2023-01-10T01:30:21;12.98;;;5.43;;
24745;SDS011;12845;52.042;6.838;2023-01-10T01:32:46;18.30;;;7.35;;
24745;SDS011;12845;52.042;6.838;2023-01-10T01:35:12;17.17;;;6.00;;
24745;SDS011;12845;52.042;6.838;2023-01-10T01:37:39;15.35;;;6.63;;
24745;SDS011;12845;52.042;6.838;2023-01-10T01:40:05;17.55;;;6.80;;
24745;SDS011;12845;52.042;6.838;2023-01-10T01:42:33;11.80;;;4.90;;
24745;SDS011;12845;52.042;6.838;2023-01-10T01:47:35;9.82;;;4.82;;
24745;SDS011;12845;52.042;6.838;2023-01-10T01:50:27;16.13;;;5.95;;
24745;SDS011;12845;52.042;6.838;2023-01-10T01:53:01;18.88;;;7.22;;
24745;SDS011;12845;52.042;6.838;2023-01-10T01:55:27;22.60;;;7.05;;
24745;SDS011;12845;52.042;6.838;2023-01-10T01:57:54;16.05;;;6.72;;
24745;SDS011;12845;52.042;6.838;2023-01-10T02:00:23;15.02;;;5.90;;
24745;SDS011;12845;52.042;6.838;2023-01-10T02:02:50;12.45;;;5.00;;
24745;SDS011;12845;52.042;6.838;2023-01-10T02:05:18;20.00;;;6.50;;
24745;SDS011;12845;52.042;6.838;2023-01-10T02:07:44;16.13;;;4.88;;
24745;SDS011;12845;52.042;6.838;2023-01-10T02:10:14;16.88;;;6.45;;
24745;SDS011;12845;52.042;6.838;2023-01-10T02:12:44;14.32;;;5.32;;
24745;SDS011;12845;52.042;6.838;2023-01-10T02:15:10;14.07;;;5.05;;
24745;SDS011;12845;52.042;6.838;2023-01-10T02:17:36;17.65;;;5.28;;
24745;SDS011;12845;52.042;6.838;2023-01-10T02:20:04;15.20;;;6.03;;
24745;SDS011;12845;52.042;6.838;2023-01-10T02:33:29;20.48;;;5.95;;
24745;SDS011;12845;52.042;6.838;2023-01-10T02:39:15;20.02;;;5.07;;
24745;SDS011;12845;52.042;6.838;2023-01-10T02:41:50;13.68;;;4.68;;
24745;SDS011;12845;52.042;6.838;2023-01-10T02:44:29;14.48;;;3.97;;
24745;SDS011;12845;52.042;6.838;2023-01-10T02:47:01;11.38;;;4.07;;
24745;SDS011;12845;52.042;6.838;2023-01-10T02:49:28;14.60;;;3.95;;
24745;SDS011;12845;52.042;6.838;2023-01-10T02:51:54;14.75;;;3.92;;
24745;SDS011;12845;52.042;6.838;2023-01-10T02:54:23;18.33;;;4.45;;
24745;SDS011;12845;52.042;6.838;2023-01-10T03:13:01;22.92;;;5.68;;
24745;SDS011;12845;52.042;6.838;2023-01-10T03:15:34;14.52;;;3.45;;
24745;SDS011;12845;52.042;6.838;2023-01-10T03:18:01;14.45;;;4.57;;
24745;SDS011;12845;52.042;6.838;2023-01-10T03:20:30;16.95;;;3.65;;
24745;SDS011;12845;52.042;6.838;2023-01-10T03:22:59;15.13;;;4.85;;
24745;SDS011;12845;52.042;6.838;2023-01-10T03:25:25;15.23;;;4.88;;
24745;SDS011;12845;52.042;6.838;2023-01-10T03:30:40;14.25;;;3.80;;
24745;SDS011;12845;52.042;6.838;2023-01-10T03:33:08;20.92;;;4.80;;
24745;SDS011;12845;52.042;6.838;2023-01-10T03:38:39;16.75;;;5.47;;
24745;SDS011;12845;52.042;6.838;2023-01-10T03:41:28;16.65;;;3.78;;
24745;SDS011;12845;52.042;6.838;2023-01-10T03:47:10;13.88;;;4.45;;
24745;SDS011;12845;52.042;6.838;2023-01-10T03:49:43;11.68;;;3.55;;
24745;SDS011;12845;52.042;6.838;2023-01-10T03:52:13;21.08;;;4.82;;
24745;SDS011;12845;52.042;6.838;2023-01-10T03:54:40;17.05;;;5.40;;
24745;SDS011;12845;52.042;6.838;2023-01-10T03:57:07;13.45;;;4.18;;
24745;SDS011;12845;52.042;6.838;2023-01-10T03:59:40;15.43;;;4.70;;
24745;SDS011;12845;52.042;6.838;2023-01-10T04:02:05;11.30;;;4.80;;
24745;SDS011;12845;52.042;6.838;2023-01-10T04:04:31;13.05;;;3.90;;
24745;SDS011;12845;52.042;6.838;2023-01-10T04:06:56;17.38;;;4.75;;
24745;SDS011;12845;52.042;6.838;2023-01-10T04:09:22;20.13;;;5.25;;
24745;SDS011;12845;52.042;6.838;2023-01-10T04:11:47;10.75;;;3.55;;
24745;SDS011;12845;52.042;6.838;2023-01-10T04:14:12;10.05;;;3.50;;
24745;SDS011;12845;52.042;6.838;2023-01-10T04:16:38;12.98;;;4.38;;
24745;SDS011;12845;52.042;6.838;2023-01-10T04:19:03;16.83;;;5.15;;
24745;SDS011;12845;52.042;6.838;2023-01-10T04:21:28;17.40;;;5.78;;
24745;SDS011;12845;52.042;6.838;2023-01-10T04:23:54;17.08;;;6.18;;
24745;SDS011;12845;52.042;6.838;2023-01-10T04:26:19;16.33;;;5.38;;
24745;SDS011;12845;52.042;6.838;2023-01-10T04:28:44;13.50;;;5.03;;
24745;SDS011;12845;52.042;6.838;2023-01-10T04:31:09;14.48;;;5.88;;
24745;SDS011;12845;52.042;6.838;2023-01-10T04:33:35;14.02;;;4.70;;
24745;SDS011;12845;52.042;6.838;2023-01-10T04:36:00;18.85;;;5.85;;
24745;SDS011;12845;52.042;6.838;2023-01-10T04:38:25;14.52;;;5.07;;
24745;SDS011;12845;52.042;6.838;2023-01-10T04:40:54;19.48;;;7.13;;
24745;SDS011;12845;52.042;6.838;2023-01-10T04:43:20;16.55;;;7.13;;
24745;SDS011;12845;52.042;6.838;2023-01-10T04:45:46;16.42;;;5.43;;
24745;SDS011;12845;52.042;6.838;2023-01-10T04:48:11;21.17;;;6.70;;
24745;SDS011;12845;52.042;6.838;2023-01-10T04:50:37;24.88;;;7.97;;
24745;SDS011;12845;52.042;6.838;2023-01-10T04:53:02;21.77;;;7.25;;
24745;SDS011;12845;52.042;6.838;2023-01-10T04:55:27;19.95;;;8.13;;
24745;SDS011;12845;52.042;6.838;2023-01-10T04:57:52;22.90;;;8.20;;
24745;SDS011;12845;52.042;6.838;2023-01-10T05:00:18;14.70;;;7.28;;
24745;SDS011;12845;52.042;6.838;2023-01-10T05:02:43;13.45;;;6.85;;
24745;SDS011;12845;52.042;6.838;2023-01-10T05:05:09;23.30;;;8.27;;
24745;SDS011;12845;52.042;6.838;2023-01-10T05:07:35;14.05;;;6.13;;
24745;SDS011;12845;52.042;6.838;2023-01-10T05:10:02;19.38;;;7.78;;
24745;SDS011;12845;52.042;6.838;2023-01-10T05:12:28;16.88;;;8.07;;
24745;SDS011;12845;52.042;6.838;2023-01-10T05:14:53;22.35;;;9.23;;
24745;SDS011;12845;52.042;6.838;2023-01-10T05:17:18;24.30;;;7.72;;
24745;SDS011;12845;52.042;6.838;2023-01-10T05:19:43;19.13;;;7.72;;
24745;SDS011;12845;52.042;6.838;2023-01-10T05:22:09;22.92;;;9.00;;
24745;SDS011;12845;52.042;6.838;2023-01-10T05:24:35;18.13;;;8.07;;
24745;SDS011;12845;52.042;6.838;2023-01-10T05:27:00;17.35;;;8.13;;
24745;SDS011;12845;52.042;6.838;2023-01-10T05:29:25;20.30;;;7.18;;
24745;SDS011;12845;52.042;6.838;2023-01-10T05:31:51;20.23;;;7.32;;
24745;SDS011;12845;52.042;6.838;2023-01-10T05:34:16;17.88;;;7.15;;
24745;SDS011;12845;52.042;6.838;2023-01-10T05:36:41;24.15;;;8.73;;
24745;SDS011;12845;52.042;6.838;2023-01-10T05:39:07;14.70;;;7.32;;
24745;SDS011;12845;52.042;6.838;2023-01-10T05:41:32;26.08;;;7.65;;
24745;SDS011;12845;52.042;6.838;2023-01-10T05:43:57;20.05;;;7.85;;
24745;SDS011;12845;52.042;6.838;2023-01-10T05:46:22;21.15;;;8.18;;
24745;SDS011;12845;52.042;6.838;2023-01-10T05:48:48;23.20;;;8.38;;
24745;SDS011;12845;52.042;6.838;2023-01-10T05:51:13;16.00;;;6.80;;
24745;SDS011;12845;52.042;6.838;2023-01-10T05:53:39;17.98;;;7.22;;
24745;SDS011;12845;52.042;6.838;2023-01-10T05:56:04;25.92;;;7.32;;
24745;SDS011;12845;52.042;6.838;2023-01-10T05:58:31;18.77;;;7.25;;
24745;SDS011;12845;52.042;6.838;2023-01-10T06:00:57;19.73;;;6.30;;
24745;SDS011;12845;52.042;6.838;2023-01-10T06:03:22;19.77;;;6.57;;
24745;SDS011;12845;52.042;6.838;2023-01-10T06:05:50;17.55;;;5.70;;
24745;SDS011;12845;52.042;6.838;2023-01-10T06:08:16;21.13;;;6.80;;
24745;SDS011;12845;52.042;6.838;2023-01-10T06:10:41;19.98;;;6.75;;
24745;SDS011;12845;52.042;6.838;2023-01-10T06:13:07;21.40;;;7.07;;
24745;SDS011;12845;52.042;6.838;2023-01-10T06:15:34;23.55;;;7.18;;
24745;SDS011;12845;52.042;6.838;2023-01-10T06:17:59;19.23;;;6.78;;
24745;SDS011;12845;52.042;6.838;2023-01-10T06:20:24;21.35;;;6.95;;
24745;SDS011;12845;52.042;6.838;2023-01-10T06:22:50;16.15;;;5.60;;
24745;SDS011;12845;52.042;6.838;2023-01-10T06:25:15;21.05;;;5.93;;
24745;SDS011;12845;52.042;6.838;2023-01-10T06:27:41;18.23;;;5.90;;
24745;SDS011;12845;52.042;6.838;2023-01-10T06:30:07;15.23;;;5.40;;
24745;SDS011;12845;52.042;6.838;2023-01-10T06:32:35;19.40;;;6.77;;
24745;SDS011;12845;52.042;6.838;2023-01-10T06:35:01;25.25;;;6.22;;
24745;SDS011;12845;52.042;6.838;2023-01-10T06:37:26;19.17;;;6.97;;
24745;SDS011;12845;52.042;6.838;2023-01-10T06:39:54;18.63;;;6.97;;
24745;SDS011;12845;52.042;6.838;2023-01-10T06:42:19;18.08;;;7.18;;
24745;SDS011;12845;52.042;6.838;2023-01-10T06:44:45;17.65;;;5.55;;
24745;SDS011;12845;52.042;6.838;2023-01-10T06:47:10;18.25;;;5.82;;
24745;SDS011;12845;52.042;6.838;2023-01-10T06:49:35;23.70;;;7.72;;
24745;SDS011;12845;52.042;6.838;2023-01-10T06:52:01;40.63;;;9.57;;
24745;SDS011;12845;52.042;6.838;2023-01-10T06:54:26;29.17;;;8.25;;
24745;SDS011;12845;52.042;6.838;2023-01-10T06:56:51;25.48;;;7.68;;
24745;SDS011;12845;52.042;6.838;2023-01-10T06:59:16;13.25;;;4.75;;
24745;SDS011;12845;52.042;6.838;2023-01-10T07:01:42;19.75;;;6.80;;
24745;SDS011;12845;52.042;6.838;2023-01-10T07:04:07;21.60;;;6.60;;
24745;SDS011;12845;52.042;6.838;2023-01-10T07:06:39;21.60;;;5.55;;
24745;SDS011;12845;52.042;6.838;2023-01-10T07:09:05;25.15;;;6.40;;
24745;SDS011;12845;52.042;6.838;2023-01-10T07:11:31;20.08;;;6.30;;
24745;SDS011;12845;52.042;6.838;2023-01-10T07:13:57;25.90;;;7.30;;
24745;SDS011;12845;52.042;6.838;2023-01-10T07:16:24;22.38;;;6.60;;
24745;SDS011;12845;52.042;6.838;2023-01-10T07:18:50;17.08;;;6.50;;
24745;SDS011;12845;52.042;6.838;2023-01-10T07:21:15;21.58;;;6.63;;
24745;SDS011;12845;52.042;6.838;2023-01-10T07:23:42;21.38;;;6.45;;
24745;SDS011;12845;52.042;6.838;2023-01-10T07:26:08;18.67;;;5.72;;
24745;SDS011;12845;52.042;6.838;2023-01-10T07:28:35;19.13;;;4.97;;
24745;SDS011;12845;52.042;6.838;2023-01-10T07:31:02;18.95;;;5.18;;
24745;SDS011;12845;52.042;6.838;2023-01-10T07:33:27;21.80;;;6.60;;
24745;SDS011;12845;52.042;6.838;2023-01-10T07:35:53;26.98;;;6.85;;
24745;SDS011;12845;52.042;6.838;2023-01-10T07:38:19;21.75;;;5.63;;
24745;SDS011;12845;52.042;6.838;2023-01-10T07:40:44;22.30;;;5.63;;
24745;SDS011;12845;52.042;6.838;2023-01-10T07:43:09;19.48;;;4.60;;
24745;SDS011;12845;52.042;6.838;2023-01-10T07:45:35;24.00;;;6.63;;
24745;SDS011;12845;52.042;6.838;2023-01-10T07:48:01;26.02;;;6.60;;
24745;SDS011;12845;52.042;6.838;2023-01-10T07:50:28;17.67;;;5.20;;
24745;SDS011;12845;52.042;6.838;2023-01-10T07:52:55;22.55;;;6.30;;
24745;SDS011;12845;52.042;6.838;2023-01-10T07:55:21;19.73;;;6.00;;
24745;SDS011;12845;52.042;6.838;2023-01-10T07:57:46;24.02;;;5.90;;
24745;SDS011;12845;52.042;6.838;2023-01-10T08:00:14;27.45;;;7.50;;
24745;SDS011;12845;52.042;6.838;2023-01-10T08:02:40;22.27;;;6.35;;
24745;SDS011;12845;52.042;6.838;2023-01-10T08:05:05;26.25;;;6.40;;
24745;SDS011;12845;52.042;6.838;2023-01-10T08:07:31;22.58;;;6.57;;
24745;SDS011;12845;52.042;6.838;2023-01-10T08:09:56;16.92;;;5.32;;
24745;SDS011;12845;52.042;6.838;2023-01-10T08:12:22;24.35;;;6.40;;
24745;SDS011;12845;52.042;6.838;2023-01-10T08:14:49;24.17;;;5.28;;
24745;SDS011;12845;52.042;6.838;2023-01-10T08:17:14;21.98;;;5.00;;
24745;SDS011;12845;52.042;6.838;2023-01-10T08:19:39;27.05;;;6.22;;
24745;SDS011;12845;52.042;6.838;2023-01-10T08:22:05;23.23;;;5.43;;
24745;SDS011;12845;52.042;6.838;2023-01-10T08:24:30;21.60;;;5.30;;
24745;SDS011;12845;52.042;6.838;2023-01-10T08:26:59;25.45;;;5.68;;
24745;SDS011;12845;52.042;6.838;2023-01-10T08:29:25;22.05;;;5.60;;
24745;SDS011;12845;52.042;6.838;2023-01-10T08:31:50;20.73;;;4.95;;
24745;SDS011;12845;52.042;6.838;2023-01-10T08:34:15;22.05;;;4.60;;
24745;SDS011;12845;52.042;6.838;2023-01-10T08:36:40;20.20;;;4.63;;
24745;SDS011;12845;52.042;6.838;2023-01-10T08:39:06;20.10;;;4.82;;
24745;SDS011;12845;52.042;6.838;2023-01-10T08:41:32;27.38;;;5.68;;
24745;SDS011;12845;52.042;6.838;2023-01-10T08:43:58;24.58;;;5.20;;
24745;SDS011;12845;52.042;6.838;2023-01-10T08:46:23;23.48;;;4.85;;
24745;SDS011;12845;52.042;6.838;2023-01-10T08:48:48;21.80;;;5.82;;
24745;SDS011;12845;52.042;6.838;2023-01-10T08:51:14;18.50;;;4.47;;
24745;SDS011;12845;52.042;6.838;2023-01-10T08:53:40;25.50;;;5.35;;
24745;SDS011;12845;52.042;6.838;2023-01-10T08:56:05;23.95;;;5.95;;
24745;SDS011;12845;52.042;6.838;2023-01-10T08:58:30;22.80;;;4.70;;
24745;SDS011;12845;52.042;6.838;2023-01-10T09:00:56;22.05;;;5.60;;
24745;SDS011;12845;52.042;6.838;2023-01-10T09:03:21;22.60;;;6.90;;
24745;SDS011;12845;52.042;6.838;2023-01-10T09:05:47;16.65;;;3.75;;
24745;SDS011;12845;52.042;6.838;2023-01-10T09:08:12;21.35;;;4.65;;
24745;SDS011;12845;52.042;6.838;2023-01-10T09:10:38;26.27;;;4.18;;
24745;SDS011;12845;52.042;6.838;2023-01-10T09:13:03;25.90;;;5.10;;
24745;SDS011;12845;52.042;6.838;2023-01-10T09:15:33;15.15;;;4.10;;
24745;SDS011;12845;52.042;6.838;2023-01-10T09:18:01;23.05;;;6.80;;
24745;SDS011;12845;52.042;6.838;2023-01-10T09:20:28;24.85;;;5.40;;
24745;SDS011;12845;52.042;6.838;2023-01-10T09:22:54;23.67;;;5.00;;
24745;SDS011;12845;52.042;6.838;2023-01-10T09:25:21;20.52;;;6.68;;
24745;SDS011;12845;52.042;6.838;2023-01-10T09:27:46;24.27;;;5.30;;
24745;SDS011;12845;52.042;6.838;2023-01-10T09:30:11;28.88;;;5.45;;
24745;SDS011;12845;52.042;6.838;2023-01-10T09:32:37;18.83;;;4.72;;
24745;SDS011;12845;52.042;6.838;2023-01-10T09:35:03;22.17;;;5.28;;
24745;SDS011;12845;52.042;6.838;2023-01-10T09:37:28;24.05;;;5.00;;
24745;SDS011;12845;52.042;6.838;2023-01-10T09:39:54;24.05;;;5.72;;
24745;SDS011;12845;52.042;6.838;2023-01-10T09:47:18;15.70;;;3.55;;
24745;SDS011;12845;52.042;6.838;2023-01-10T09:52:27;33.85;;;6.32;;
24745;SDS011;12845;52.042;6.838;2023-01-10T09:57:21;23.08;;;5.75;;
24745;SDS011;12845;52.042;6.838;2023-01-10T09:59:46;26.25;;;6.40;;
24745;SDS011;12845;52.042;6.838;2023-01-10T10:07:31;20.92;;;4.88;;
24745;SDS011;12845;52.042;6.838;2023-01-10T10:09:56;23.05;;;5.60;;
24745;SDS011;12845;52.042;6.838;2023-01-10T10:12:28;23.60;;;6.82;;
24745;SDS011;12845;52.042;6.838;2023-01-10T10:17:46;27.05;;;6.10;;
24745;SDS011;12845;52.042;6.838;2023-01-10T10:23:18;27.52;;;6.30;;
24745;SDS011;12845;52.042;6.838;2023-01-10T10:36:30;22.05;;;5.70;;
24745;SDS011;12845;52.042;6.838;2023-01-10T10:40:16;14.65;;;3.65;;
24745;SDS011;12845;52.042;6.838;2023-01-10T10:42:22;24.50;;;6.07;;
24745;SDS011;12845;52.042;6.838;2023-01-10T10:44:53;22.60;;;5.15;;
24745;SDS011;12845;52.042;6.838;2023-01-10T10:47:29;24.23;;;5.75;;
24745;SDS011;12845;52.042;6.838;2023-01-10T10:49:58;22.80;;;5.15;;
24745;SDS011;12845;52.042;6.838;2023-01-10T10:52:38;22.60;;;5.03;;
24745;SDS011;12845;52.042;6.838;2023-01-10T10:55:04;20.45;;;5.25;;
24745;SDS011;12845;52.042;6.838;2023-01-10T10:57:31;17.15;;;5.07;;
24745;SDS011;12845;52.042;6.838;2023-01-10T10:59:57;18.83;;;4.38;;
24745;SDS011;12845;52.042;6.838;2023-01-10T11:02:29;23.93;;;4.93;;
24745;SDS011;12845;52.042;6.838;2023-01-10T11:05:15;15.88;;;4.85;;
24745;SDS011;12845;52.042;6.838;2023-01-10T11:07:41;26.95;;;5.53;;
24745;SDS011;12845;52.042;6.838;2023-01-10T11:10:28;19.15;;;5.18;;
24745;SDS011;12845;52.042;6.838;2023-01-10T11:13:45;13.98;;;4.65;;
24745;SDS011;12845;52.042;6.838;2023-01-10T11:15:57;16.40;;;4.30;;
24745;SDS011;12845;52.042;6.838;2023-01-10T11:18:25;23.20;;;4.15;;
24745;SDS011;12845;52.042;6.838;2023-01-10T11:20:53;16.03;;;5.67;;
24745;SDS011;12845;52.042;6.838;2023-01-10T11:25:59;21.13;;;6.20;;
24745;SDS011;12845;52.042;6.838;2023-01-10T11:28:29;17.38;;;4.90;;
24745;SDS011;12845;52.042;6.838;2023-01-10T11:30:55;24.80;;;4.85;;
24745;SDS011;12845;52.042;6.838;2023-01-10T11:33:21;25.35;;;5.70;;
24745;SDS011;12845;52.042;6.838;2023-01-10T11:36:04;20.95;;;4.97;;
24745;SDS011;12845;52.042;6.838;2023-01-10T11:38:32;22.08;;;6.53;;
24745;SDS011;12845;52.042;6.838;2023-01-10T11:41:05;22.75;;;4.88;;
24745;SDS011;12845;52.042;6.838;2023-01-10T11:43:47;23.13;;;6.40;;
24745;SDS011;12845;52.042;6.838;2023-01-10T11:46:21;19.30;;;5.78;;
24745;SDS011;12845;52.042;6.838;2023-01-10T11:51:35;20.83;;;5.15;;
24745;SDS011;12845;52.042;6.838;2023-01-10T11:54:04;21.48;;;5.63;;
24745;SDS011;12845;52.042;6.838;2023-01-10T11:56:35;20.10;;;4.57;;
24745;SDS011;12845;52.042;6.838;2023-01-10T11:59:15;17.77;;;4.50;;
24745;SDS011;12845;52.042;6.838;2023-01-10T12:04:40;20.98;;;4.90;;
24745;SDS011;12845;52.042;6.838;2023-01-10T12:07:11;20.90;;;4.55;;
24745;SDS011;12845;52.042;6.838;2023-01-10T12:09:43;27.48;;;6.50;;
24745;SDS011;12845;52.042;6.838;2023-01-10T12:14:46;24.75;;;6.20;;
24745;SDS011;12845;52.042;6.838;2023-01-10T12:17:17;27.67;;;8.55;;
24745;SDS011;12845;52.042;6.838;2023-01-10T12:19:55;19.55;;;4.68;;
24745;SDS011;12845;52.042;6.838;2023-01-10T12:22:36;21.33;;;6.95;;
24745;SDS011;12845;52.042;6.838;2023-01-10T12:25:05;25.55;;;7.05;;
24745;SDS011;12845;52.042;6.838;2023-01-10T12:27:52;20.70;;;5.32;;
24745;SDS011;12845;52.042;6.838;2023-01-10T12:33:05;19.70;;;5.47;;
24745;SDS011;12845;52.042;6.838;2023-01-10T12:35:39;22.55;;;6.18;;
24745;SDS011;12845;52.042;6.838;2023-01-10T12:40:48;22.27;;;3.97;;
24745;SDS011;12845;52.042;6.838;2023-01-10T12:43:18;24.23;;;5.18;;
24745;SDS011;12845;52.042;6.838;2023-01-10T12:46:13;24.08;;;4.07;;
24745;SDS011;12845;52.042;6.838;2023-01-10T12:48:51;21.15;;;5.18;;
24745;SDS011;12845;52.042;6.838;2023-01-10T12:51:24;18.58;;;5.00;;
24745;SDS011;12845;52.042;6.838;2023-01-10T12:56:17;16.95;;;4.32;;
24745;SDS011;12845;52.042;6.838;2023-01-10T12:58:45;25.67;;;5.10;;
24745;SDS011;12845;52.042;6.838;2023-01-10T13:01:19;16.08;;;4.28;;
24745;SDS011;12845;52.042;6.838;2023-01-10T13:03:45;18.85;;;5.80;;
24745;SDS011;12845;52.042;6.838;2023-01-10T13:06:21;18.90;;;4.20;;
24745;SDS011;12845;52.042;6.838;2023-01-10T13:09:04;21.55;;;4.85;;
24745;SDS011;12845;52.042;6.838;2023-01-10T13:11:39;24.05;;;4.90;;
24745;SDS011;12845;52.042;6.838;2023-01-10T13:14:06;21.20;;;4.95;;
24745;SDS011;12845;52.042;6.838;2023-01-10T13:21:35;20.70;;;4.65;;
24745;SDS011;12845;52.042;6.838;2023-01-10T13:24:01;24.13;;;5.05;;
24745;SDS011;12845;52.042;6.838;2023-01-10T13:29:10;21.85;;;4.38;;
24745;SDS011;12845;52.042;6.838;2023-01-10T13:31:39;18.45;;;3.88;;
24745;SDS011;12845;52.042;6.838;2023-01-10T13:34:06;16.65;;;4.03;;
24745;SDS011;12845;52.042;6.838;2023-01-10T13:36:50;17.85;;;4.82;;
24745;SDS011;12845;52.042;6.838;2023-01-10T13:39:26;19.90;;;4.93;;
24745;SDS011;12845;52.042;6.838;2023-01-10T14:06:13;16.42;;;3.17;;
24745;SDS011;12845;52.042;6.838;2023-01-10T14:08:39;19.70;;;4.90;;
24745;SDS011;12845;52.042;6.838;2023-01-10T14:11:05;21.52;;;4.43;;
24745;SDS011;12845;52.042;6.838;2023-01-10T14:13:32;19.08;;;4.38;;
24745;SDS011;12845;52.042;6.838;2023-01-10T14:15:58;14.65;;;3.53;;
24745;SDS011;12845;52.042;6.838;2023-01-10T14:18:34;15.65;;;3.63;;
24745;SDS011;12845;52.042;6.838;2023-01-10T14:23:35;17.13;;;4.10;;
24745;SDS011;12845;52.042;6.838;2023-01-10T14:26:05;17.60;;;4.32;;
24745;SDS011;12845;52.042;6.838;2023-01-10T14:28:40;15.75;;;4.30;;
24745;SDS011;12845;52.042;6.838;2023-01-10T14:31:06;21.20;;;4.43;;
24745;SDS011;12845;52.042;6.838;2023-01-10T14:33:38;11.98;;;4.03;;
24745;SDS011;12845;52.042;6.838;2023-01-10T14:36:08;12.77;;;3.38;;
24745;SDS011;12845;52.042;6.838;2023-01-10T14:38:39;25.88;;;5.13;;
24745;SDS011;12845;52.042;6.838;2023-01-10T14:41:28;16.77;;;4.25;;
24745;SDS011;12845;52.042;6.838;2023-01-10T14:44:01;18.13;;;3.97;;
24745;SDS011;12845;52.042;6.838;2023-01-10T14:46:49;18.60;;;3.95;;
24745;SDS011;12845;52.042;6.838;2023-01-10T14:49:24;15.43;;;3.47;;
24745;SDS011;12845;52.042;6.838;2023-01-10T14:51:50;23.35;;;4.68;;
24745;SDS011;12845;52.042;6.838;2023-01-10T14:54:25;14.50;;;3.22;;
24745;SDS011;12845;52.042;6.838;2023-01-10T14:56:51;13.38;;;3.05;;
24745;SDS011;12845;52.042;6.838;2023-01-10T15:01:52;18.63;;;3.47;;
24745;SDS011;12845;52.042;6.838;2023-01-10T15:04:21;16.27;;;3.35;;
24745;SDS011;12845;52.042;6.838;2023-01-10T15:06:55;16.40;;;3.58;;
24745;SDS011;12845;52.042;6.838;2023-01-10T15:09:26;20.73;;;4.70;;
24745;SDS011;12845;52.042;6.838;2023-01-10T15:11:53;13.18;;;4.07;;
24745;SDS011;12845;52.042;6.838;2023-01-10T15:14:21;15.88;;;3.20;;
24745;SDS011;12845;52.042;6.838;2023-01-10T15:16:50;11.73;;;2.72;;
24745;SDS011;12845;52.042;6.838;2023-01-10T15:19:20;15.57;;;4.00;;
24745;SDS011;12845;52.042;6.838;2023-01-10T15:21:47;17.20;;;3.33;;
24745;SDS011;12845;52.042;6.838;2023-01-10T15:24:22;14.52;;;3.05;;
24745;SDS011;12845;52.042;6.838;2023-01-10T15:26:52;15.75;;;3.50;;
24745;SDS011;12845;52.042;6.838;2023-01-10T15:29:22;16.80;;;3.85;;
24745;SDS011;12845;52.042;6.838;2023-01-10T15:31:49;15.05;;;3.10;;
24745;SDS011;12845;52.042;6.838;2023-01-10T15:34:17;11.80;;;2.85;;
24745;SDS011;12845;52.042;6.838;2023-01-10T15:39:19;11.38;;;3.35;;
24745;SDS011;12845;52.042;6.838;2023-01-10T15:41:45;20.45;;;3.42;;
24745;SDS011;12845;52.042;6.838;2023-01-10T15:44:20;14.18;;;3.80;;
24745;SDS011;12845;52.042;6.838;2023-01-10T15:46:52;12.48;;;2.58;;
24745;SDS011;12845;52.042;6.838;2023-01-10T15:49:20;13.05;;;3.47;;
24745;SDS011;12845;52.042;6.838;2023-01-10T15:51:50;13.52;;;3.25;;
24745;SDS011;12845;52.042;6.838;2023-01-10T15:56:51;13.23;;;3.60;;
24745;SDS011;12845;52.042;6.838;2023-01-10T15:59:27;17.85;;;3.25;;
24745;SDS011;12845;52.042;6.838;2023-01-10T16:02:14;17.20;;;4.80;;
24745;SDS011;12845;52.042;6.838;2023-01-10T16:04:40;13.48;;;3.03;;
24745;SDS011;12845;52.042;6.838;2023-01-10T16:09:35;15.02;;;3.88;;
24745;SDS011;12845;52.042;6.838;2023-01-10T16:12:01;16.55;;;3.28;;
24745;SDS011;12845;52.042;6.838;2023-01-10T16:14:45;15.43;;;3.00;;
24745;SDS011;12845;52.042;6.838;2023-01-10T16:17:11;17.80;;;4.57;;
24745;SDS011;12845;52.042;6.838;2023-01-10T16:19:36;10.75;;;3.35;;
24745;SDS011;12845;52.042;6.838;2023-01-10T16:22:02;15.48;;;3.55;;
24745;SDS011;12845;52.042;6.838;2023-01-10T16:24:28;17.45;;;4.03;;
24745;SDS011;12845;52.042;6.838;2023-01-10T16:26:55;14.32;;;4.50;;
24745;SDS011;12845;52.042;6.838;2023-01-10T16:29:22;13.52;;;3.40;;
24745;SDS011;12845;52.042;6.838;2023-01-10T16:31:50;12.30;;;3.65;;
24745;SDS011;12845;52.042;6.838;2023-01-10T16:34:17;13.55;;;3.55;;
24745;SDS011;12845;52.042;6.838;2023-01-10T16:36:42;12.48;;;3.25;;
24745;SDS011;12845;52.042;6.838;2023-01-10T16:39:23;17.83;;;3.58;;
24745;SDS011;12845;52.042;6.838;2023-01-10T16:41:48;14.63;;;4.45;;
24745;SDS011;12845;52.042;6.838;2023-01-10T16:44:32;13.90;;;3.22;;
24745;SDS011;12845;52.042;6.838;2023-01-10T16:46:58;13.27;;;4.72;;
24745;SDS011;12845;52.042;6.838;2023-01-10T16:49:24;15.30;;;4.70;;
24745;SDS011;12845;52.042;6.838;2023-01-10T16:51:50;13.93;;;4.25;;
24745;SDS011;12845;52.042;6.838;2023-01-10T16:54:17;11.80;;;3.50;;
24745;SDS011;12845;52.042;6.838;2023-01-10T16:56:44;15.63;;;3.90;;
24745;SDS011;12845;52.042;6.838;2023-01-10T16:59:11;14.73;;;3.70;;